createdAt,value
2019-03-18T00:02:01.163Z,12.7
2019-03-18T00:07:06.188Z,12.7
2019-03-18T00:12:11.385Z,12.6
2019-03-18T00:17:15.055Z,12.6
2019-03-18T00:22:20.248Z,12.6
2019-03-18T00:27:25.442Z,12.6
2019-03-18T00:32:30.599Z,12.6
2019-03-18T00:37:35.622Z,12.6
2019-03-18T00:42:40.938Z,12.6
2019-03-18T00:47:46.293Z,12.5
2019-03-18T00:52:51.639Z,12.5
2019-03-18T00:57:56.689Z,12.4
2019-03-18T01:03:02.561Z,12.2
2019-03-18T01:08:08.059Z,12.2
2019-03-18T01:13:13.570Z,12.2
2019-03-18T01:18:19.084Z,12.1
2019-03-18T01:23:24.292Z,12.1
2019-03-18T01:28:29.527Z,12.1
2019-03-18T01:33:34.821Z,12
2019-03-18T01:38:39.861Z,12
2019-03-18T01:43:45.278Z,11.9
2019-03-18T01:48:51.321Z,11.9
2019-03-18T01:53:56.632Z,11.9
2019-03-18T01:59:01.764Z,12
2019-03-18T02:04:07.135Z,12.1
2019-03-18T02:09:12.131Z,12.1
2019-03-18T02:14:17.481Z,12.2
2019-03-18T02:19:22.499Z,12.3
2019-03-18T02:24:26.408Z,12.2
2019-03-18T02:29:31.764Z,12
2019-03-18T02:34:37.356Z,11.8
2019-03-18T02:39:42.430Z,11.7
2019-03-18T02:44:48.082Z,11.6
2019-03-18T02:49:54.667Z,11.6
2019-03-18T02:55:00.484Z,11.5
2019-03-18T03:00:05.845Z,11.5
2019-03-18T03:05:11.531Z,11.4
2019-03-18T03:10:16.769Z,11.3
2019-03-18T03:15:22.100Z,11.3
2019-03-18T03:20:27.848Z,11.2
2019-03-18T03:25:33.146Z,11.2
2019-03-18T03:30:38.566Z,11.1
2019-03-18T03:35:43.765Z,10.9
2019-03-18T03:40:49.120Z,10.8
2019-03-18T03:45:54.437Z,10.8
2019-03-18T03:51:00.426Z,10.5
2019-03-18T03:56:05.605Z,10.5
2019-03-18T04:01:09.371Z,10.4
2019-03-18T04:06:15.061Z,10.2
2019-03-18T04:11:20.558Z,10.2
2019-03-18T04:16:25.833Z,10
2019-03-18T04:21:30.998Z,10
2019-03-18T04:26:36.400Z,9.9
2019-03-18T04:31:41.919Z,9.8
2019-03-18T04:36:47.575Z,9.7
2019-03-18T04:41:52.863Z,9.6
2019-03-18T04:46:58.026Z,9.6
2019-03-18T04:52:03.683Z,9.5
2019-03-18T04:57:09.188Z,9.5
2019-03-18T05:02:18.618Z,9.4
2019-03-18T05:07:24.131Z,9.4
2019-03-18T05:12:29.463Z,9.3
2019-03-18T05:17:34.905Z,9.2
2019-03-18T05:22:42.564Z,9.2
2019-03-18T05:27:48.101Z,9.3
2019-03-18T05:32:53.319Z,9.5
2019-03-18T05:37:58.446Z,9.7
2019-03-18T05:43:03.566Z,10
2019-03-18T05:48:08.748Z,10.1
2019-03-18T05:53:14.321Z,10.5
2019-03-18T05:58:19.520Z,10.5
2019-03-18T06:03:24.960Z,10.9
2019-03-18T06:08:30.291Z,11.3
2019-03-18T06:13:35.424Z,11.7
2019-03-18T06:18:39.142Z,11.9
2019-03-18T06:23:44.476Z,12.2
2019-03-18T06:28:50.218Z,12.8
2019-03-18T06:33:55.416Z,12.8
2019-03-18T06:39:00.744Z,13
2019-03-18T06:44:05.804Z,13.5
2019-03-18T06:49:11.124Z,13.9
2019-03-18T06:54:16.979Z,14
2019-03-18T06:59:22.483Z,14
2019-03-18T07:04:27.732Z,14.1
2019-03-18T07:09:33.049Z,14.5
2019-03-18T07:14:38.211Z,14.5
2019-03-18T07:19:43.359Z,14.3
2019-03-18T07:24:48.788Z,14.2
2019-03-18T07:29:54.194Z,13.9
2019-03-18T07:34:59.606Z,12.9
2019-03-18T07:40:05.273Z,12.6
2019-03-18T07:45:09.167Z,12.6
2019-03-18T07:50:14.450Z,12.4
2019-03-18T07:55:18.529Z,12.2
2019-03-18T08:00:23.880Z,12
2019-03-18T08:05:29.305Z,11.9
2019-03-18T08:10:33.555Z,12.1
2019-03-18T08:15:38.722Z,12.1
2019-03-18T08:20:43.954Z,12.6
2019-03-18T08:25:48.980Z,12.4
2019-03-18T08:30:53.023Z,12.3
2019-03-18T08:35:57.124Z,12.2
2019-03-18T08:41:01.570Z,12.1
2019-03-18T08:46:06.923Z,12
2019-03-18T08:51:11.993Z,11.9
2019-03-18T08:56:17.133Z,11.7
2019-03-18T09:01:22.397Z,11.6
2019-03-18T09:06:30.190Z,11.5
2019-03-18T09:11:36.598Z,11.5
2019-03-18T09:16:41.633Z,11.5
2019-03-18T09:21:46.747Z,11.7
2019-03-18T09:27:04.000Z,12.2
2019-03-18T09:31:59.488Z,12.2
2019-03-18T09:37:04.645Z,12.4
2019-03-18T09:42:08.832Z,12.9
2019-03-18T09:47:14.353Z,12.9
2019-03-18T09:52:19.560Z,12.9
2019-03-18T09:57:28.253Z,13.3
2019-03-18T10:02:23.441Z,13.4
2019-03-18T10:07:28.373Z,13.4
2019-03-18T10:12:33.826Z,13.5
2019-03-18T10:17:38.976Z,13.6
2019-03-18T10:22:44.165Z,13.5
2019-03-18T10:27:49.349Z,13.8
2019-03-18T10:32:54.664Z,14.1
2019-03-18T10:37:59.966Z,14.5
2019-03-18T10:43:04.177Z,14.7
2019-03-18T10:48:09.223Z,14.7
2019-03-18T10:53:14.435Z,14.4
2019-03-18T10:58:20.961Z,14
2019-03-18T11:03:26.225Z,13.7
2019-03-18T11:08:31.454Z,13.3
2019-03-18T11:13:36.856Z,13
2019-03-18T11:18:42.098Z,12.8
2019-03-18T11:23:47.608Z,12.6
2019-03-18T11:28:52.991Z,12.6
2019-03-18T11:33:58.373Z,12.5
2019-03-18T11:39:03.266Z,12.4
2019-03-18T11:44:08.481Z,12.2
2019-03-18T11:49:13.574Z,12.1
2019-03-18T11:54:19.234Z,12.1
2019-03-18T11:59:24.505Z,12
2019-03-18T12:04:33.775Z,12
2019-03-18T12:09:39.390Z,12
2019-03-18T12:14:44.563Z,12
2019-03-18T12:19:49.729Z,12
2019-03-18T12:24:55.169Z,11.9
2019-03-18T12:29:59.611Z,12.1
2019-03-18T12:35:04.972Z,12
2019-03-18T12:40:10.271Z,12.1
2019-03-18T12:45:15.559Z,12.2
2019-03-18T12:50:56.822Z,12.4
2019-03-18T12:55:22.275Z,12.4
2019-03-18T13:00:27.685Z,12.2
2019-03-18T13:05:34.011Z,12.1
2019-03-18T13:10:39.270Z,12.2
2019-03-18T13:15:44.938Z,12.1
2019-03-18T13:20:49.364Z,12.1
2019-03-18T13:25:54.991Z,12.1
2019-03-18T13:31:00.564Z,12
2019-03-18T13:36:04.485Z,11.8
2019-03-18T13:41:09.925Z,11.6
2019-03-18T13:46:18.388Z,11.4
2019-03-18T13:51:24.397Z,11.4
2019-03-18T13:56:28.168Z,11.4
2019-03-18T14:01:33.384Z,11.3
2019-03-18T14:06:38.877Z,11.3
2019-03-18T14:11:44.383Z,11.1
2019-03-18T14:16:49.543Z,11
2019-03-18T14:21:55.115Z,10.9
2019-03-18T14:27:00.712Z,11
2019-03-18T14:32:04.769Z,11
2019-03-18T14:37:10.028Z,11.2
2019-03-18T14:42:15.057Z,11.3
2019-03-18T14:47:20.903Z,11.2
2019-03-18T14:52:26.226Z,11.2
2019-03-18T14:57:31.424Z,11.2
2019-03-18T15:02:36.971Z,11.2
2019-03-18T15:07:42.541Z,11.2
2019-03-18T15:12:47.885Z,11.1
2019-03-18T15:17:53.341Z,11.2
2019-03-18T15:22:58.723Z,11.2
2019-03-18T15:28:04.191Z,11.1
2019-03-18T15:33:09.717Z,10.9
2019-03-18T15:38:15.012Z,10.9
2019-03-18T15:43:20.449Z,10.8
2019-03-18T15:48:25.626Z,10.7
2019-03-18T15:53:29.347Z,10.6
2019-03-18T15:58:34.828Z,10.5
2019-03-18T16:03:40.356Z,10.4
2019-03-18T16:08:45.726Z,10.3
2019-03-18T16:13:51.089Z,10.2
2019-03-18T16:18:56.409Z,10.1
2019-03-18T16:24:01.770Z,10
2019-03-18T16:29:07.629Z,9.9
2019-03-18T16:34:13.492Z,9.7
2019-03-18T16:39:18.895Z,9.7
2019-03-18T16:44:24.131Z,9.7
2019-03-18T16:49:29.995Z,9.6
2019-03-18T16:54:33.687Z,9.5
2019-03-18T16:59:39.345Z,9.5
2019-03-18T17:04:44.536Z,9.4
2019-03-18T17:09:53.424Z,9.4
2019-03-18T17:14:56.990Z,9.3
2019-03-18T17:20:06.941Z,9.3
2019-03-18T17:25:12.049Z,9.3
2019-03-18T17:30:17.496Z,9.2
2019-03-18T17:35:23.318Z,9.1
2019-03-18T17:40:28.565Z,9.1
2019-03-18T17:45:33.723Z,9.1
2019-03-18T17:50:40.511Z,9.2
2019-03-18T17:55:45.665Z,9.2
2019-03-18T18:00:51.072Z,9.1
2019-03-18T18:05:59.788Z,9.1
2019-03-18T18:11:04.996Z,9.1
2019-03-18T18:16:10.354Z,9
2019-03-18T18:21:15.524Z,9
2019-03-18T18:26:21.185Z,8.9
2019-03-18T18:31:26.472Z,8.9
2019-03-18T18:36:32.783Z,8.9
2019-03-18T18:41:38.028Z,8.9
2019-03-18T18:46:44.225Z,8.9
2019-03-18T18:51:50.072Z,8.9
2019-03-18T18:56:55.719Z,8.9
2019-03-18T19:02:01.258Z,9.2
2019-03-18T19:07:06.544Z,9.5
2019-03-18T19:12:12.432Z,9.4
2019-03-18T19:17:17.638Z,9.2
2019-03-18T19:22:23.082Z,9.1
2019-03-18T19:27:29.359Z,8.9
2019-03-18T19:32:33.548Z,8.8
2019-03-18T19:37:38.914Z,8.8
2019-03-18T19:42:44.284Z,8.7
2019-03-18T19:47:54.969Z,8.7
2019-03-18T19:53:00.187Z,8.7
2019-03-18T19:58:05.425Z,8.7
2019-03-18T20:03:10.957Z,8.7
2019-03-18T20:08:15.111Z,8.7
2019-03-18T20:13:21.618Z,8.7
2019-03-18T20:18:26.709Z,8.7
2019-03-18T20:23:32.101Z,8.7
2019-03-18T20:28:37.597Z,8.7
2019-03-18T20:33:43.888Z,8.7
2019-03-18T20:38:49.553Z,8.7
2019-03-18T20:43:55.169Z,8.7
2019-03-18T20:48:59.360Z,8.8
2019-03-18T20:54:13.802Z,8.9
2019-03-18T20:59:08.940Z,8.9
2019-03-18T21:04:14.617Z,8.9
2019-03-18T21:09:19.838Z,8.8
2019-03-18T21:14:25.220Z,8.8
2019-03-18T21:19:25.756Z,8.8
2019-03-18T21:24:30.903Z,8.8
2019-03-18T21:29:36.577Z,8.8
2019-03-18T21:34:41.775Z,8.7
2019-03-18T21:39:47.281Z,8.7
2019-03-18T21:44:52.445Z,8.7
2019-03-18T21:49:58.210Z,8.6
2019-03-18T21:55:03.395Z,8.6
2019-03-18T22:00:08.453Z,8.5
2019-03-18T22:05:13.942Z,8.5
2019-03-18T22:10:19.692Z,8.6
2019-03-18T22:15:23.439Z,8.6
2019-03-18T22:20:28.804Z,8.6
2019-03-18T22:25:36.697Z,8.6
2019-03-18T22:30:41.968Z,8.6
2019-03-18T22:35:47.642Z,8.6
2019-03-18T22:40:53.024Z,8.5
2019-03-18T22:45:58.147Z,8.4
2019-03-18T22:51:03.788Z,8.3
2019-03-18T22:56:08.123Z,8.3
2019-03-18T23:01:13.270Z,8.3
2019-03-18T23:06:17.128Z,8.2
2019-03-18T23:11:22.546Z,8.2
2019-03-18T23:16:28.087Z,8.1
2019-03-18T23:21:33.331Z,8
2019-03-18T23:26:38.668Z,8
2019-03-18T23:31:44.006Z,8
2019-03-18T23:36:49.266Z,8
2019-03-18T23:41:54.484Z,8
2019-03-18T23:46:59.963Z,7.9
2019-03-18T23:52:05.202Z,7.9
2019-03-18T23:57:10.804Z,7.8
